sensor_id;sensor_type;location;lat;lon;timestamp;P1;durP1;ratioP1;P2;durP2;ratioP2
9541;SDS011;4809;48.224;8.572;2022-12-08T00:01:44;8.03;;;5.40;;
9541;SDS011;4809;48.224;8.572;2022-12-08T00:04:09;7.40;;;4.70;;
9541;SDS011;4809;48.224;8.572;2022-12-08T00:06:37;7.10;;;5.10;;
9541;SDS011;4809;48.224;8.572;2022-12-08T00:09:36;7.13;;;4.67;;
9541;SDS011;4809;48.224;8.572;2022-12-08T00:12:04;8.17;;;5.03;;
9541;SDS011;4809;48.224;8.572;2022-12-08T00:14:34;6.83;;;4.70;;
9541;SDS011;4809;48.224;8.572;2022-12-08T00:17:03;8.07;;;4.93;;
9541;SDS011;4809;48.224;8.572;2022-12-08T00:19:29;8.13;;;5.17;;
9541;SDS011;4809;48.224;8.572;2022-12-08T00:21:56;8.10;;;4.90;;
9541;SDS011;4809;48.224;8.572;2022-12-08T00:24:22;6.97;;;4.60;;
9541;SDS011;4809;48.224;8.572;2022-12-08T00:26:49;6.67;;;4.73;;
9541;SDS011;4809;48.224;8.572;2022-12-08T00:29:15;7.17;;;4.77;;
9541;SDS011;4809;48.224;8.572;2022-12-08T00:31:41;7.07;;;4.93;;
9541;SDS011;4809;48.224;8.572;2022-12-08T00:34:06;6.67;;;4.87;;
9541;SDS011;4809;48.224;8.572;2022-12-08T00:36:32;6.87;;;4.77;;
9541;SDS011;4809;48.224;8.572;2022-12-08T00:38:58;7.03;;;4.67;;
9541;SDS011;4809;48.224;8.572;2022-12-08T00:41:25;6.97;;;4.83;;
9541;SDS011;4809;48.224;8.572;2022-12-08T00:44:11;6.87;;;4.63;;
9541;SDS011;4809;48.224;8.572;2022-12-08T00:46:39;7.03;;;4.60;;
9541;SDS011;4809;48.224;8.572;2022-12-08T00:49:06;7.53;;;4.60;;
9541;SDS011;4809;48.224;8.572;2022-12-08T00:51:32;5.33;;;4.07;;
9541;SDS011;4809;48.224;8.572;2022-12-08T00:53:58;6.77;;;4.47;;
9541;SDS011;4809;48.224;8.572;2022-12-08T00:56:24;6.93;;;4.60;;
9541;SDS011;4809;48.224;8.572;2022-12-08T00:58:50;6.70;;;4.40;;
9541;SDS011;4809;48.224;8.572;2022-12-08T01:01:16;6.63;;;4.17;;
9541;SDS011;4809;48.224;8.572;2022-12-08T01:03:42;6.97;;;4.73;;
9541;SDS011;4809;48.224;8.572;2022-12-08T01:06:08;7.33;;;4.47;;
9541;SDS011;4809;48.224;8.572;2022-12-08T01:08:35;8.23;;;4.40;;
9541;SDS011;4809;48.224;8.572;2022-12-08T01:11:05;7.40;;;5.17;;
9541;SDS011;4809;48.224;8.572;2022-12-08T01:13:34;7.03;;;4.80;;
9541;SDS011;4809;48.224;8.572;2022-12-08T01:16:00;6.20;;;4.27;;
9541;SDS011;4809;48.224;8.572;2022-12-08T01:18:26;6.70;;;4.43;;
9541;SDS011;4809;48.224;8.572;2022-12-08T01:20:52;7.27;;;4.40;;
9541;SDS011;4809;48.224;8.572;2022-12-08T01:23:18;6.87;;;4.50;;
9541;SDS011;4809;48.224;8.572;2022-12-08T01:25:44;5.73;;;4.30;;
9541;SDS011;4809;48.224;8.572;2022-12-08T01:28:10;6.43;;;4.10;;
9541;SDS011;4809;48.224;8.572;2022-12-08T01:30:38;8.43;;;4.30;;
9541;SDS011;4809;48.224;8.572;2022-12-08T01:33:04;5.73;;;4.17;;
9541;SDS011;4809;48.224;8.572;2022-12-08T01:35:30;7.40;;;4.20;;
9541;SDS011;4809;48.224;8.572;2022-12-08T01:37:58;6.27;;;3.90;;
9541;SDS011;4809;48.224;8.572;2022-12-08T01:40:23;7.50;;;4.13;;
9541;SDS011;4809;48.224;8.572;2022-12-08T01:42:49;5.53;;;4.03;;
9541;SDS011;4809;48.224;8.572;2022-12-08T01:45:20;6.23;;;4.30;;
9541;SDS011;4809;48.224;8.572;2022-12-08T01:47:51;6.67;;;4.27;;
9541;SDS011;4809;48.224;8.572;2022-12-08T01:50:20;7.50;;;4.30;;
9541;SDS011;4809;48.224;8.572;2022-12-08T01:52:48;6.57;;;4.10;;
9541;SDS011;4809;48.224;8.572;2022-12-08T01:55:34;6.00;;;3.87;;
9541;SDS011;4809;48.224;8.572;2022-12-08T01:58:07;5.83;;;4.10;;
9541;SDS011;4809;48.224;8.572;2022-12-08T02:00:40;6.60;;;4.57;;
9541;SDS011;4809;48.224;8.572;2022-12-08T02:03:08;7.03;;;4.37;;
9541;SDS011;4809;48.224;8.572;2022-12-08T02:05:38;5.63;;;4.10;;
9541;SDS011;4809;48.224;8.572;2022-12-08T02:08:05;6.13;;;3.70;;
9541;SDS011;4809;48.224;8.572;2022-12-08T02:10:35;5.60;;;3.77;;
9541;SDS011;4809;48.224;8.572;2022-12-08T02:13:03;5.27;;;3.97;;
9541;SDS011;4809;48.224;8.572;2022-12-08T02:15:36;5.73;;;3.53;;
9541;SDS011;4809;48.224;8.572;2022-12-08T02:23:53;6.87;;;4.17;;
9541;SDS011;4809;48.224;8.572;2022-12-08T02:38:19;5.70;;;3.77;;
9541;SDS011;4809;48.224;8.572;2022-12-08T02:43:59;5.67;;;3.83;;
9541;SDS011;4809;48.224;8.572;2022-12-08T02:46:34;6.07;;;4.20;;
9541;SDS011;4809;48.224;8.572;2022-12-08T02:49:29;5.33;;;3.90;;
9541;SDS011;4809;48.224;8.572;2022-12-08T02:52:05;5.70;;;3.97;;
9541;SDS011;4809;48.224;8.572;2022-12-08T02:55:01;5.63;;;3.80;;
9541;SDS011;4809;48.224;8.572;2022-12-08T03:00:21;5.80;;;3.87;;
9541;SDS011;4809;48.224;8.572;2022-12-08T03:02:55;5.20;;;3.53;;
9541;SDS011;4809;48.224;8.572;2022-12-08T03:05:50;5.40;;;3.57;;
9541;SDS011;4809;48.224;8.572;2022-12-08T03:11:24;5.67;;;3.60;;
9541;SDS011;4809;48.224;8.572;2022-12-08T03:13:59;5.87;;;3.80;;
9541;SDS011;4809;48.224;8.572;2022-12-08T03:16:27;5.83;;;3.67;;
9541;SDS011;4809;48.224;8.572;2022-12-08T03:19:13;6.00;;;3.90;;
9541;SDS011;4809;48.224;8.572;2022-12-08T03:21:44;5.20;;;3.50;;
9541;SDS011;4809;48.224;8.572;2022-12-08T03:24:15;5.70;;;3.80;;
9541;SDS011;4809;48.224;8.572;2022-12-08T03:29:18;6.47;;;4.27;;
9541;SDS011;4809;48.224;8.572;2022-12-08T03:31:46;5.53;;;3.73;;
9541;SDS011;4809;48.224;8.572;2022-12-08T03:34:17;6.60;;;4.17;;
9541;SDS011;4809;48.224;8.572;2022-12-08T03:36:45;6.17;;;3.97;;
9541;SDS011;4809;48.224;8.572;2022-12-08T03:39:11;6.33;;;3.93;;
9541;SDS011;4809;48.224;8.572;2022-12-08T03:41:37;5.50;;;3.60;;
9541;SDS011;4809;48.224;8.572;2022-12-08T03:44:03;5.63;;;3.77;;
9541;SDS011;4809;48.224;8.572;2022-12-08T03:46:29;6.20;;;3.97;;
9541;SDS011;4809;48.224;8.572;2022-12-08T03:48:55;6.10;;;3.83;;
9541;SDS011;4809;48.224;8.572;2022-12-08T03:51:21;5.97;;;3.70;;
9541;SDS011;4809;48.224;8.572;2022-12-08T03:53:47;5.07;;;3.67;;
9541;SDS011;4809;48.224;8.572;2022-12-08T03:56:15;5.47;;;3.70;;
9541;SDS011;4809;48.224;8.572;2022-12-08T03:58:44;5.37;;;3.60;;
9541;SDS011;4809;48.224;8.572;2022-12-08T04:01:10;5.77;;;3.93;;
9541;SDS011;4809;48.224;8.572;2022-12-08T04:03:36;5.40;;;3.73;;
9541;SDS011;4809;48.224;8.572;2022-12-08T04:06:02;5.43;;;3.60;;
9541;SDS011;4809;48.224;8.572;2022-12-08T04:08:27;5.63;;;3.67;;
9541;SDS011;4809;48.224;8.572;2022-12-08T04:10:53;5.00;;;3.37;;
9541;SDS011;4809;48.224;8.572;2022-12-08T04:13:19;6.20;;;3.93;;
9541;SDS011;4809;48.224;8.572;2022-12-08T04:15:45;5.40;;;3.63;;
9541;SDS011;4809;48.224;8.572;2022-12-08T04:18:11;13.50;;;7.60;;
9541;SDS011;4809;48.224;8.572;2022-12-08T04:20:38;9.43;;;6.37;;
9541;SDS011;4809;48.224;8.572;2022-12-08T04:23:05;15.07;;;11.13;;
9541;SDS011;4809;48.224;8.572;2022-12-08T04:25:31;11.00;;;8.43;;
9541;SDS011;4809;48.224;8.572;2022-12-08T04:27:57;7.80;;;5.27;;
9541;SDS011;4809;48.224;8.572;2022-12-08T04:30:23;5.17;;;3.67;;
9541;SDS011;4809;48.224;8.572;2022-12-08T04:32:48;6.70;;;3.80;;
9541;SDS011;4809;48.224;8.572;2022-12-08T04:35:14;5.07;;;3.87;;
9541;SDS011;4809;48.224;8.572;2022-12-08T04:37:40;4.77;;;3.47;;
9541;SDS011;4809;48.224;8.572;2022-12-08T04:40:08;5.63;;;3.53;;
9541;SDS011;4809;48.224;8.572;2022-12-08T04:42:34;5.60;;;3.77;;
9541;SDS011;4809;48.224;8.572;2022-12-08T04:45:00;5.63;;;3.67;;
9541;SDS011;4809;48.224;8.572;2022-12-08T04:47:26;4.60;;;3.23;;
9541;SDS011;4809;48.224;8.572;2022-12-08T04:49:51;4.60;;;3.40;;
9541;SDS011;4809;48.224;8.572;2022-12-08T04:52:17;4.77;;;3.30;;
9541;SDS011;4809;48.224;8.572;2022-12-08T04:54:42;4.43;;;3.37;;
9541;SDS011;4809;48.224;8.572;2022-12-08T04:57:08;4.27;;;3.13;;
9541;SDS011;4809;48.224;8.572;2022-12-08T04:59:34;4.70;;;3.20;;
9541;SDS011;4809;48.224;8.572;2022-12-08T05:01:59;5.60;;;3.73;;
9541;SDS011;4809;48.224;8.572;2022-12-08T05:04:25;6.67;;;4.07;;
9541;SDS011;4809;48.224;8.572;2022-12-08T05:06:51;5.33;;;3.70;;
9541;SDS011;4809;48.224;8.572;2022-12-08T05:09:16;6.13;;;3.70;;
9541;SDS011;4809;48.224;8.572;2022-12-08T05:11:42;5.07;;;4.00;;
9541;SDS011;4809;48.224;8.572;2022-12-08T05:14:09;6.67;;;3.80;;
9541;SDS011;4809;48.224;8.572;2022-12-08T05:16:36;6.00;;;3.80;;
9541;SDS011;4809;48.224;8.572;2022-12-08T05:19:03;6.50;;;3.97;;
9541;SDS011;4809;48.224;8.572;2022-12-08T05:21:29;4.83;;;3.67;;
9541;SDS011;4809;48.224;8.572;2022-12-08T05:23:55;5.40;;;3.90;;
9541;SDS011;4809;48.224;8.572;2022-12-08T05:26:20;8.80;;;5.80;;
9541;SDS011;4809;48.224;8.572;2022-12-08T05:28:46;13.20;;;7.47;;
9541;SDS011;4809;48.224;8.572;2022-12-08T05:31:12;15.73;;;8.30;;
9541;SDS011;4809;48.224;8.572;2022-12-08T05:33:39;13.00;;;7.10;;
9541;SDS011;4809;48.224;8.572;2022-12-08T05:36:06;17.07;;;8.43;;
9541;SDS011;4809;48.224;8.572;2022-12-08T05:38:32;15.63;;;9.00;;
9541;SDS011;4809;48.224;8.572;2022-12-08T05:40:58;11.30;;;6.73;;
9541;SDS011;4809;48.224;8.572;2022-12-08T05:43:23;18.23;;;9.60;;
9541;SDS011;4809;48.224;8.572;2022-12-08T05:45:49;21.10;;;12.17;;
9541;SDS011;4809;48.224;8.572;2022-12-08T05:48:15;24.63;;;13.50;;
9541;SDS011;4809;48.224;8.572;2022-12-08T05:50:47;17.70;;;10.90;;
9541;SDS011;4809;48.224;8.572;2022-12-08T05:53:13;10.30;;;6.77;;
9541;SDS011;4809;48.224;8.572;2022-12-08T05:55:40;7.97;;;5.23;;
9541;SDS011;4809;48.224;8.572;2022-12-08T05:58:06;7.40;;;5.00;;
9541;SDS011;4809;48.224;8.572;2022-12-08T06:00:33;15.03;;;10.43;;
9541;SDS011;4809;48.224;8.572;2022-12-08T06:02:59;12.00;;;7.07;;
9541;SDS011;4809;48.224;8.572;2022-12-08T06:05:25;7.53;;;5.20;;
9541;SDS011;4809;48.224;8.572;2022-12-08T06:07:51;5.20;;;3.43;;
9541;SDS011;4809;48.224;8.572;2022-12-08T06:10:16;5.60;;;3.40;;
9541;SDS011;4809;48.224;8.572;2022-12-08T06:12:42;4.03;;;3.10;;
9541;SDS011;4809;48.224;8.572;2022-12-08T06:15:08;4.27;;;3.10;;
9541;SDS011;4809;48.224;8.572;2022-12-08T06:17:34;4.40;;;3.00;;
9541;SDS011;4809;48.224;8.572;2022-12-08T06:19:59;5.17;;;3.00;;
9541;SDS011;4809;48.224;8.572;2022-12-08T06:22:25;4.90;;;3.40;;
9541;SDS011;4809;48.224;8.572;2022-12-08T06:24:52;3.97;;;2.93;;
9541;SDS011;4809;48.224;8.572;2022-12-08T06:27:18;4.50;;;3.17;;
9541;SDS011;4809;48.224;8.572;2022-12-08T06:29:44;4.23;;;2.93;;
9541;SDS011;4809;48.224;8.572;2022-12-08T06:32:10;4.67;;;3.13;;
9541;SDS011;4809;48.224;8.572;2022-12-08T06:34:36;4.53;;;3.13;;
9541;SDS011;4809;48.224;8.572;2022-12-08T06:37:01;7.47;;;4.80;;
9541;SDS011;4809;48.224;8.572;2022-12-08T06:39:27;4.70;;;3.50;;
9541;SDS011;4809;48.224;8.572;2022-12-08T06:41:53;5.53;;;3.47;;
9541;SDS011;4809;48.224;8.572;2022-12-08T06:44:37;5.43;;;3.80;;
9541;SDS011;4809;48.224;8.572;2022-12-08T06:47:03;4.83;;;3.50;;
9541;SDS011;4809;48.224;8.572;2022-12-08T06:49:29;6.03;;;3.70;;
9541;SDS011;4809;48.224;8.572;2022-12-08T06:51:55;4.33;;;3.20;;
9541;SDS011;4809;48.224;8.572;2022-12-08T06:54:20;4.50;;;3.10;;
9541;SDS011;4809;48.224;8.572;2022-12-08T06:56:46;4.43;;;3.10;;
9541;SDS011;4809;48.224;8.572;2022-12-08T06:59:12;3.87;;;2.97;;
9541;SDS011;4809;48.224;8.572;2022-12-08T07:01:37;4.57;;;3.10;;
9541;SDS011;4809;48.224;8.572;2022-12-08T07:04:03;5.53;;;3.50;;
9541;SDS011;4809;48.224;8.572;2022-12-08T07:06:29;5.90;;;4.00;;
9541;SDS011;4809;48.224;8.572;2022-12-08T07:08:54;6.20;;;3.83;;
9541;SDS011;4809;48.224;8.572;2022-12-08T07:11:20;4.87;;;3.23;;
9541;SDS011;4809;48.224;8.572;2022-12-08T07:13:46;5.40;;;3.47;;
9541;SDS011;4809;48.224;8.572;2022-12-08T07:16:11;4.67;;;3.30;;
9541;SDS011;4809;48.224;8.572;2022-12-08T07:18:37;5.27;;;3.27;;
9541;SDS011;4809;48.224;8.572;2022-12-08T07:21:03;4.23;;;3.20;;
9541;SDS011;4809;48.224;8.572;2022-12-08T07:23:30;7.50;;;5.47;;
9541;SDS011;4809;48.224;8.572;2022-12-08T07:25:58;6.17;;;4.37;;
9541;SDS011;4809;48.224;8.572;2022-12-08T07:28:26;5.00;;;3.50;;
9541;SDS011;4809;48.224;8.572;2022-12-08T07:30:53;5.17;;;3.40;;
9541;SDS011;4809;48.224;8.572;2022-12-08T07:33:19;5.27;;;3.73;;
9541;SDS011;4809;48.224;8.572;2022-12-08T07:35:52;5.27;;;3.80;;
9541;SDS011;4809;48.224;8.572;2022-12-08T07:38:22;7.33;;;4.00;;
9541;SDS011;4809;48.224;8.572;2022-12-08T07:40:48;4.30;;;3.40;;
9541;SDS011;4809;48.224;8.572;2022-12-08T07:43:14;5.30;;;3.50;;
9541;SDS011;4809;48.224;8.572;2022-12-08T07:45:40;5.50;;;3.50;;
9541;SDS011;4809;48.224;8.572;2022-12-08T07:48:06;4.40;;;3.00;;
9541;SDS011;4809;48.224;8.572;2022-12-08T07:50:31;4.57;;;3.30;;
9541;SDS011;4809;48.224;8.572;2022-12-08T07:52:57;5.03;;;3.23;;
9541;SDS011;4809;48.224;8.572;2022-12-08T07:55:23;5.47;;;3.30;;
9541;SDS011;4809;48.224;8.572;2022-12-08T07:57:50;4.73;;;3.30;;
9541;SDS011;4809;48.224;8.572;2022-12-08T08:00:16;3.60;;;2.93;;
9541;SDS011;4809;48.224;8.572;2022-12-08T08:02:43;4.57;;;2.97;;
9541;SDS011;4809;48.224;8.572;2022-12-08T08:05:08;4.10;;;3.10;;
9541;SDS011;4809;48.224;8.572;2022-12-08T08:07:36;8.90;;;5.57;;
9541;SDS011;4809;48.224;8.572;2022-12-08T08:10:02;12.37;;;6.37;;
9541;SDS011;4809;48.224;8.572;2022-12-08T08:12:29;10.80;;;5.87;;
9541;SDS011;4809;48.224;8.572;2022-12-08T08:14:54;7.63;;;5.00;;
9541;SDS011;4809;48.224;8.572;2022-12-08T08:17:20;10.03;;;4.90;;
9541;SDS011;4809;48.224;8.572;2022-12-08T08:19:46;14.93;;;7.37;;
9541;SDS011;4809;48.224;8.572;2022-12-08T08:22:11;12.33;;;8.57;;
9541;SDS011;4809;48.224;8.572;2022-12-08T08:24:37;13.27;;;9.20;;
9541;SDS011;4809;48.224;8.572;2022-12-08T08:27:03;9.97;;;7.70;;
9541;SDS011;4809;48.224;8.572;2022-12-08T08:29:28;12.07;;;8.47;;
9541;SDS011;4809;48.224;8.572;2022-12-08T08:31:54;12.63;;;9.60;;
9541;SDS011;4809;48.224;8.572;2022-12-08T08:34:20;13.63;;;9.77;;
9541;SDS011;4809;48.224;8.572;2022-12-08T08:36:45;11.90;;;9.20;;
9541;SDS011;4809;48.224;8.572;2022-12-08T08:39:11;12.53;;;9.13;;
9541;SDS011;4809;48.224;8.572;2022-12-08T08:41:37;13.37;;;9.93;;
9541;SDS011;4809;48.224;8.572;2022-12-08T08:44:03;11.83;;;9.33;;
9541;SDS011;4809;48.224;8.572;2022-12-08T08:46:29;12.53;;;9.10;;
9541;SDS011;4809;48.224;8.572;2022-12-08T08:48:55;11.20;;;7.90;;
9541;SDS011;4809;48.224;8.572;2022-12-08T08:51:21;12.77;;;9.40;;
9541;SDS011;4809;48.224;8.572;2022-12-08T08:53:47;11.70;;;8.33;;
9541;SDS011;4809;48.224;8.572;2022-12-08T08:56:13;10.53;;;7.83;;
9541;SDS011;4809;48.224;8.572;2022-12-08T08:58:42;11.67;;;7.40;;
9541;SDS011;4809;48.224;8.572;2022-12-08T09:01:07;12.27;;;7.50;;
9541;SDS011;4809;48.224;8.572;2022-12-08T09:03:33;11.10;;;7.33;;
9541;SDS011;4809;48.224;8.572;2022-12-08T09:05:58;13.37;;;8.43;;
9541;SDS011;4809;48.224;8.572;2022-12-08T09:08:24;14.57;;;9.10;;
9541;SDS011;4809;48.224;8.572;2022-12-08T09:10:50;14.50;;;8.93;;
9541;SDS011;4809;48.224;8.572;2022-12-08T09:13:16;14.07;;;8.43;;
9541;SDS011;4809;48.224;8.572;2022-12-08T09:15:42;14.53;;;8.50;;
9541;SDS011;4809;48.224;8.572;2022-12-08T09:18:07;14.87;;;8.37;;
9541;SDS011;4809;48.224;8.572;2022-12-08T09:20:33;16.63;;;7.80;;
9541;SDS011;4809;48.224;8.572;2022-12-08T09:22:59;14.90;;;8.03;;
9541;SDS011;4809;48.224;8.572;2022-12-08T09:25:25;12.77;;;7.33;;
9541;SDS011;4809;48.224;8.572;2022-12-08T09:27:52;17.40;;;7.20;;
9541;SDS011;4809;48.224;8.572;2022-12-08T09:30:18;11.13;;;6.97;;
9541;SDS011;4809;48.224;8.572;2022-12-08T09:32:43;12.40;;;7.07;;
9541;SDS011;4809;48.224;8.572;2022-12-08T09:35:09;15.07;;;7.43;;
9541;SDS011;4809;48.224;8.572;2022-12-08T09:37:35;12.67;;;7.20;;
9541;SDS011;4809;48.224;8.572;2022-12-08T09:40:00;10.70;;;7.83;;
9541;SDS011;4809;48.224;8.572;2022-12-08T09:42:32;8.97;;;6.53;;
9541;SDS011;4809;48.224;8.572;2022-12-08T09:45:09;10.37;;;6.47;;
9541;SDS011;4809;48.224;8.572;2022-12-08T09:48:20;7.87;;;5.40;;
9541;SDS011;4809;48.224;8.572;2022-12-08T09:50:36;7.37;;;5.50;;
9541;SDS011;4809;48.224;8.572;2022-12-08T09:55:56;10.00;;;6.43;;
9541;SDS011;4809;48.224;8.572;2022-12-08T09:58:26;13.57;;;7.57;;
9541;SDS011;4809;48.224;8.572;2022-12-08T10:01:03;8.20;;;5.90;;
9541;SDS011;4809;48.224;8.572;2022-12-08T10:03:29;14.50;;;8.50;;
9541;SDS011;4809;48.224;8.572;2022-12-08T10:11:39;9.10;;;5.40;;
9541;SDS011;4809;48.224;8.572;2022-12-08T10:14:22;9.00;;;5.67;;
9541;SDS011;4809;48.224;8.572;2022-12-08T10:17:02;8.30;;;5.33;;
9541;SDS011;4809;48.224;8.572;2022-12-08T10:19:35;6.63;;;4.87;;
9541;SDS011;4809;48.224;8.572;2022-12-08T10:22:20;8.27;;;5.37;;
9541;SDS011;4809;48.224;8.572;2022-12-08T10:24:59;6.07;;;4.10;;
9541;SDS011;4809;48.224;8.572;2022-12-08T10:27:29;5.80;;;4.00;;
9541;SDS011;4809;48.224;8.572;2022-12-08T10:29:58;5.70;;;4.10;;
9541;SDS011;4809;48.224;8.572;2022-12-08T10:32:24;5.63;;;3.80;;
9541;SDS011;4809;48.224;8.572;2022-12-08T10:35:08;5.07;;;3.47;;
9541;SDS011;4809;48.224;8.572;2022-12-08T10:37:36;5.00;;;3.90;;
9541;SDS011;4809;48.224;8.572;2022-12-08T10:42:41;5.23;;;3.80;;
9541;SDS011;4809;48.224;8.572;2022-12-08T10:47:46;4.10;;;3.40;;
9541;SDS011;4809;48.224;8.572;2022-12-08T10:50:28;3.80;;;2.90;;
9541;SDS011;4809;48.224;8.572;2022-12-08T10:55:46;3.80;;;2.57;;
9541;SDS011;4809;48.224;8.572;2022-12-08T10:58:31;3.40;;;2.67;;
9541;SDS011;4809;48.224;8.572;2022-12-08T11:01:16;4.40;;;3.50;;
9541;SDS011;4809;48.224;8.572;2022-12-08T11:04:02;3.63;;;2.57;;
9541;SDS011;4809;48.224;8.572;2022-12-08T11:06:31;3.17;;;2.50;;
9541;SDS011;4809;48.224;8.572;2022-12-08T11:09:03;3.10;;;2.80;;
9541;SDS011;4809;48.224;8.572;2022-12-08T11:11:37;4.40;;;3.33;;
9541;SDS011;4809;48.224;8.572;2022-12-08T11:14:11;3.67;;;3.00;;
9541;SDS011;4809;48.224;8.572;2022-12-08T11:17:07;4.07;;;3.47;;
9541;SDS011;4809;48.224;8.572;2022-12-08T11:19:54;3.93;;;3.20;;
9541;SDS011;4809;48.224;8.572;2022-12-08T11:22:32;6.07;;;4.10;;
9541;SDS011;4809;48.224;8.572;2022-12-08T11:25:07;5.50;;;3.30;;
9541;SDS011;4809;48.224;8.572;2022-12-08T11:27:42;8.30;;;4.60;;
9541;SDS011;4809;48.224;8.572;2022-12-08T11:30:17;9.67;;;5.23;;
9541;SDS011;4809;48.224;8.572;2022-12-08T11:32:46;9.27;;;4.60;;
9541;SDS011;4809;48.224;8.572;2022-12-08T11:35:26;8.07;;;5.10;;
9541;SDS011;4809;48.224;8.572;2022-12-08T11:38:02;12.33;;;5.60;;
9541;SDS011;4809;48.224;8.572;2022-12-08T11:40:34;5.73;;;4.33;;
9541;SDS011;4809;48.224;8.572;2022-12-08T11:43:13;7.70;;;4.30;;
9541;SDS011;4809;48.224;8.572;2022-12-08T11:46:01;6.00;;;4.10;;
9541;SDS011;4809;48.224;8.572;2022-12-08T11:48:49;4.80;;;3.40;;
9541;SDS011;4809;48.224;8.572;2022-12-08T11:51:21;4.27;;;3.10;;
9541;SDS011;4809;48.224;8.572;2022-12-08T11:56:36;3.93;;;3.03;;
9541;SDS011;4809;48.224;8.572;2022-12-08T11:59:14;4.37;;;3.20;;
9541;SDS011;4809;48.224;8.572;2022-12-08T12:01:59;5.97;;;4.20;;
9541;SDS011;4809;48.224;8.572;2022-12-08T12:04:31;2.90;;;2.40;;
9541;SDS011;4809;48.224;8.572;2022-12-08T12:18:04;2.73;;;2.43;;
9541;SDS011;4809;48.224;8.572;2022-12-08T12:20:33;8.27;;;5.07;;
9541;SDS011;4809;48.224;8.572;2022-12-08T12:23:35;4.23;;;2.73;;
9541;SDS011;4809;48.224;8.572;2022-12-08T12:26:27;4.77;;;3.87;;
9541;SDS011;4809;48.224;8.572;2022-12-08T12:29:17;5.23;;;3.53;;
9541;SDS011;4809;48.224;8.572;2022-12-08T12:31:46;4.73;;;3.70;;
9541;SDS011;4809;48.224;8.572;2022-12-08T12:34:16;3.80;;;3.40;;
9541;SDS011;4809;48.224;8.572;2022-12-08T12:36:51;4.67;;;3.40;;
9541;SDS011;4809;48.224;8.572;2022-12-08T12:39:19;6.10;;;4.13;;
9541;SDS011;4809;48.224;8.572;2022-12-08T12:41:59;5.57;;;4.07;;
9541;SDS011;4809;48.224;8.572;2022-12-08T12:46:56;3.80;;;3.00;;
9541;SDS011;4809;48.224;8.572;2022-12-08T12:54:44;2.97;;;2.30;;
9541;SDS011;4809;48.224;8.572;2022-12-08T13:05:00;3.73;;;2.73;;
9541;SDS011;4809;48.224;8.572;2022-12-08T13:10:17;3.60;;;2.60;;
9541;SDS011;4809;48.224;8.572;2022-12-08T13:12:52;4.97;;;3.10;;
9541;SDS011;4809;48.224;8.572;2022-12-08T13:15:38;6.03;;;3.47;;
9541;SDS011;4809;48.224;8.572;2022-12-08T13:18:05;7.73;;;4.70;;
9541;SDS011;4809;48.224;8.572;2022-12-08T13:20:50;6.93;;;4.00;;
9541;SDS011;4809;48.224;8.572;2022-12-08T13:25:51;7.87;;;4.60;;
9541;SDS011;4809;48.224;8.572;2022-12-08T13:28:31;3.47;;;2.80;;
9541;SDS011;4809;48.224;8.572;2022-12-08T13:30:58;3.60;;;2.70;;
9541;SDS011;4809;48.224;8.572;2022-12-08T13:36:02;3.13;;;2.33;;
9541;SDS011;4809;48.224;8.572;2022-12-08T13:38:30;2.80;;;2.23;;
9541;SDS011;4809;48.224;8.572;2022-12-08T13:41:00;2.30;;;2.10;;
9541;SDS011;4809;48.224;8.572;2022-12-08T13:43:31;2.63;;;2.20;;
9541;SDS011;4809;48.224;8.572;2022-12-08T13:45:58;2.70;;;2.20;;
9541;SDS011;4809;48.224;8.572;2022-12-08T13:48:31;3.53;;;2.60;;
9541;SDS011;4809;48.224;8.572;2022-12-08T13:51:15;2.50;;;2.20;;
9541;SDS011;4809;48.224;8.572;2022-12-08T13:54:05;3.07;;;2.20;;
9541;SDS011;4809;48.224;8.572;2022-12-08T13:56:52;2.40;;;2.20;;
9541;SDS011;4809;48.224;8.572;2022-12-08T14:01:55;4.50;;;3.27;;
9541;SDS011;4809;48.224;8.572;2022-12-08T14:04:23;3.93;;;2.70;;
9541;SDS011;4809;48.224;8.572;2022-12-08T14:06:51;6.10;;;4.47;;
9541;SDS011;4809;48.224;8.572;2022-12-08T14:09:21;3.13;;;2.70;;
9541;SDS011;4809;48.224;8.572;2022-12-08T14:12:00;3.30;;;2.50;;
9541;SDS011;4809;48.224;8.572;2022-12-08T14:14:29;3.47;;;2.87;;
9541;SDS011;4809;48.224;8.572;2022-12-08T14:17:08;5.03;;;2.83;;
9541;SDS011;4809;48.224;8.572;2022-12-08T14:19:36;4.23;;;3.23;;
9541;SDS011;4809;48.224;8.572;2022-12-08T14:22:15;4.17;;;3.00;;
9541;SDS011;4809;48.224;8.572;2022-12-08T14:24:48;4.37;;;3.70;;
9541;SDS011;4809;48.224;8.572;2022-12-08T14:27:17;21.70;;;17.30;;
9541;SDS011;4809;48.224;8.572;2022-12-08T14:29:49;7.53;;;5.83;;
9541;SDS011;4809;48.224;8.572;2022-12-08T14:37:25;5.90;;;3.80;;
9541;SDS011;4809;48.224;8.572;2022-12-08T14:39:59;5.20;;;3.60;;
9541;SDS011;4809;48.224;8.572;2022-12-08T14:42:27;5.73;;;4.03;;
9541;SDS011;4809;48.224;8.572;2022-12-08T14:44:58;8.67;;;4.90;;
9541;SDS011;4809;48.224;8.572;2022-12-08T14:47:27;8.30;;;4.70;;
9541;SDS011;4809;48.224;8.572;2022-12-08T14:49:54;5.87;;;4.17;;
9541;SDS011;4809;48.224;8.572;2022-12-08T14:52:20;6.07;;;4.20;;
9541;SDS011;4809;48.224;8.572;2022-12-08T14:54:47;6.90;;;4.20;;
9541;SDS011;4809;48.224;8.572;2022-12-08T14:57:15;4.57;;;3.60;;
9541;SDS011;4809;48.224;8.572;2022-12-08T14:59:41;4.50;;;3.53;;
9541;SDS011;4809;48.224;8.572;2022-12-08T15:04:43;4.87;;;3.70;;
9541;SDS011;4809;48.224;8.572;2022-12-08T15:07:18;5.50;;;3.90;;
9541;SDS011;4809;48.224;8.572;2022-12-08T15:09:48;4.53;;;3.47;;
9541;SDS011;4809;48.224;8.572;2022-12-08T15:12:34;4.57;;;3.50;;
9541;SDS011;4809;48.224;8.572;2022-12-08T15:15:01;5.00;;;3.63;;
9541;SDS011;4809;48.224;8.572;2022-12-08T15:22:52;4.00;;;3.20;;
9541;SDS011;4809;48.224;8.572;2022-12-08T15:25:19;4.30;;;3.23;;
9541;SDS011;4809;48.224;8.572;2022-12-08T15:27:44;4.27;;;3.10;;
9541;SDS011;4809;48.224;8.572;2022-12-08T15:30:14;4.17;;;3.27;;
9541;SDS011;4809;48.224;8.572;2022-12-08T15:32:42;5.97;;;3.30;;
9541;SDS011;4809;48.224;8.572;2022-12-08T15:35:11;5.07;;;3.23;;
9541;SDS011;4809;48.224;8.572;2022-12-08T15:37:38;4.53;;;3.47;;
9541;SDS011;4809;48.224;8.572;2022-12-08T15:40:04;5.23;;;3.37;;
9541;SDS011;4809;48.224;8.572;2022-12-08T15:42:31;5.20;;;3.40;;
9541;SDS011;4809;48.224;8.572;2022-12-08T15:44:57;4.67;;;3.50;;
9541;SDS011;4809;48.224;8.572;2022-12-08T15:47:23;4.07;;;3.10;;
9541;SDS011;4809;48.224;8.572;2022-12-08T15:49:50;3.70;;;3.03;;
9541;SDS011;4809;48.224;8.572;2022-12-08T15:52:19;3.17;;;2.53;;
9541;SDS011;4809;48.224;8.572;2022-12-08T15:54:46;3.97;;;2.53;;
9541;SDS011;4809;48.224;8.572;2022-12-08T15:57:19;3.87;;;2.90;;
9541;SDS011;4809;48.224;8.572;2022-12-08T15:59:47;3.17;;;2.63;;
9541;SDS011;4809;48.224;8.572;2022-12-08T16:02:14;3.60;;;2.80;;
9541;SDS011;4809;48.224;8.572;2022-12-08T16:04:40;4.17;;;3.17;;
9541;SDS011;4809;48.224;8.572;2022-12-08T16:07:06;3.73;;;2.80;;
9541;SDS011;4809;48.224;8.572;2022-12-08T16:09:53;4.03;;;3.00;;
9541;SDS011;4809;48.224;8.572;2022-12-08T16:12:24;8.63;;;6.03;;
9541;SDS011;4809;48.224;8.572;2022-12-08T16:15:10;8.77;;;6.87;;
9541;SDS011;4809;48.224;8.572;2022-12-08T16:17:36;9.50;;;6.70;;
9541;SDS011;4809;48.224;8.572;2022-12-08T16:20:04;7.03;;;4.60;;
9541;SDS011;4809;48.224;8.572;2022-12-08T16:22:32;4.47;;;3.37;;
9541;SDS011;4809;48.224;8.572;2022-12-08T16:24:58;4.60;;;3.30;;
9541;SDS011;4809;48.224;8.572;2022-12-08T16:27:25;4.67;;;3.50;;
9541;SDS011;4809;48.224;8.572;2022-12-08T16:29:54;4.77;;;3.47;;
9541;SDS011;4809;48.224;8.572;2022-12-08T16:32:21;5.93;;;4.33;;
9541;SDS011;4809;48.224;8.572;2022-12-08T16:34:47;9.23;;;6.33;;
9541;SDS011;4809;48.224;8.572;2022-12-08T16:37:14;5.87;;;4.03;;
9541;SDS011;4809;48.224;8.572;2022-12-08T16:39:45;5.97;;;3.80;;
9541;SDS011;4809;48.224;8.572;2022-12-08T16:42:14;6.00;;;4.00;;
9541;SDS011;4809;48.224;8.572;2022-12-08T16:45:04;5.93;;;4.07;;
9541;SDS011;4809;48.224;8.572;2022-12-08T16:47:31;6.37;;;4.23;;
9541;SDS011;4809;48.224;8.572;2022-12-08T16:49:57;5.17;;;4.00;;
9541;SDS011;4809;48.224;8.572;2022-12-08T16:52:23;5.83;;;4.30;;
9541;SDS011;4809;48.224;8.572;2022-12-08T16:54:48;6.50;;;4.37;;
9541;SDS011;4809;48.224;8.572;2022-12-08T16:57:14;7.67;;;4.73;;
9541;SDS011;4809;48.224;8.572;2022-12-08T16:59:40;7.57;;;5.50;;
9541;SDS011;4809;48.224;8.572;2022-12-08T17:02:05;5.80;;;4.33;;
9541;SDS011;4809;48.224;8.572;2022-12-08T17:04:31;6.27;;;4.23;;
9541;SDS011;4809;48.224;8.572;2022-12-08T17:06:57;5.33;;;3.93;;